Pooletown, North Carolina
Current Conditions -  °F | °C
As of 9:55 PM on Friday 21 Nov 2014 (Local Time) from KVUJ Reporting Station
Clear Clear  
Wind Chill: 33°   Ceiling: Unl
Heat Index: 33°   Visibility: 10mi
Dew Point: 16°   Wind: 3mph
Humidity: 50%   Direction: 30°NNE
Pressure: 30.55"   Gusts: NA
Location:  35.534°N, 80.2631°W
Report Text: KVUJ 220255Z AUTO 03003KT 10SM CLR 01/M09 A3055 RMK AO2 T00081087
Loading
Personal Weather Stations






























Interactive Weather Map New forecast layout! Learn more

10-Day Weather Forecast

Advertisements
Track Severe Weather on mobile